»·PEaware :: N15JG NONE-KDEN

N15JG :: NONE-KDEN

FLIGHT INFORMATION

Flight Status: Arrived
Operator: Privately registered:
United States
More flights under this callsign
Pilot: Anonymous 11047 (11047)
Aircraft: MOONEY M-20 201 202 205 220 ATS MSE
(M20P)
More flights by this aircraft type
Origin: NONE
Destination: KDEN Denver Intl
United States
More flights between these airports :: More routes between these airports
Route: +
File this flight plan on PilotEdge
Remarks:
Altitude:
(Current/Filed)
10,500ft
Speed:
(Current/Filed)
0kts
Departed: 27-Apr-18 12:31 PM
Arrived: 27-Apr-18 01:27 PM
Distance/Time
Traveled:
Not Available
Distance/Time
To Go:
Arrived

Flight Plot

Page will automatically refresh every two minutes.

Flight plan parsing failed; only flown route is shown


Map Options




Map Legend


Flown Route
Filed Route
Departure Airport
Arrival Airport
Navaid (VOR, NDB)
Fix

Horizontal Profiles

Position Reports

Time Latitude Longitude Heading Altitude Ground
Speed
27-Apr-18 12:29 40.380442 -106.851925 115 10726ft 166kts
27-Apr-18 12:30 40.361715 -106.796008 115 10811ft 168kts
27-Apr-18 12:31 40.364424 -106.738355 58 11037ft 168kts
27-Apr-18 12:32 40.384379 -106.682552 68 11245ft 169kts
27-Apr-18 12:33 40.398692 -106.625083 75 11572ft 163kts
27-Apr-18 12:34 40.410136 -106.569791 72 11764ft 168kts
27-Apr-18 12:35 40.424144 -106.512645 74 11953ft 166kts
27-Apr-18 12:36 40.442566 -106.455914 55 11832ft 179kts
27-Apr-18 12:37 40.474088 -106.402657 49 11409ft 190kts
27-Apr-18 12:38 40.498140 -106.343182 68 11026ft 190kts
27-Apr-18 12:39 40.515911 -106.284158 64 10752ft 188kts
27-Apr-18 12:40 40.538246 -106.223435 58 10604ft 176kts
27-Apr-18 12:41 40.558007 -106.169844 81 11060ft 153kts
27-Apr-18 12:42 40.553333 -106.116040 98 11487ft 147kts
27-Apr-18 12:43 40.546094 -106.062918 103 11816ft 148kts
27-Apr-18 12:44 40.532870 -106.013285 118 12339ft 137kts
27-Apr-18 12:45 40.514903 -105.966258 116 12702ft 152kts
27-Apr-18 12:46 40.504611 -105.908643 80 12752ft 166kts
27-Apr-18 12:47 40.545273 -105.881511 22 12688ft 174kts
27-Apr-18 12:48 40.588970 -105.852168 27 12620ft 177kts
27-Apr-18 12:49 40.631265 -105.820027 33 12583ft 178kts
27-Apr-18 12:50 40.670289 -105.782501 39 12103ft 173kts
27-Apr-18 12:51 40.695885 -105.732749 79 11519ft 173kts
27-Apr-18 12:52 40.702214 -105.678061 80 11117ft 169kts
27-Apr-18 12:53 40.703539 -105.618953 90 10918ft 159kts
27-Apr-18 12:54 40.697881 -105.560836 102 10466ft 163kts
27-Apr-18 12:55 40.687528 -105.504543 100 10019ft 154kts
27-Apr-18 12:56 40.682524 -105.448819 95 9547ft 151kts
27-Apr-18 12:57 40.669643 -105.397137 119 9112ft 150kts
27-Apr-18 12:58 40.637292 -105.365209 155 9096ft 152kts
27-Apr-18 12:59 40.601661 -105.343173 155 9242ft 153kts
27-Apr-18 13:00 40.567609 -105.310622 138 9460ft 147kts
27-Apr-18 13:01 40.537133 -105.274706 135 9647ft 149kts
27-Apr-18 13:02 40.503671 -105.240482 149 9662ft 155kts
27-Apr-18 13:03 40.469284 -105.206354 150 9742ft 153kts
27-Apr-18 13:04 40.432777 -105.176287 143 9762ft 156kts
27-Apr-18 13:05 40.399042 -105.145037 143 9669ft 164kts
27-Apr-18 13:06 40.362108 -105.111216 147 9463ft 164kts
27-Apr-18 13:07 40.324295 -105.079597 147 9310ft 159kts
27-Apr-18 13:08 40.286716 -105.050390 147 9173ft 158kts
27-Apr-18 13:09 40.249861 -105.015980 141 8829ft 160kts
27-Apr-18 13:10 40.215629 -104.984037 142 8775ft 149kts
27-Apr-18 13:11 40.180971 -104.954057 145 8370ft 148kts
27-Apr-18 13:12 40.146494 -104.924798 150 7943ft 149kts
27-Apr-18 13:13 40.111235 -104.898137 144 7589ft 146kts
27-Apr-18 13:14 40.077243 -104.869204 144 7552ft 145kts
27-Apr-18 13:15 40.042975 -104.839232 143 7531ft 150kts
27-Apr-18 13:16 40.007305 -104.810995 144 7591ft 150kts
27-Apr-18 13:17 39.974954 -104.776786 137 7604ft 149kts
27-Apr-18 13:18 39.941998 -104.744742 145 6841ft 151kts
27-Apr-18 13:19 39.907109 -104.721352 154 6570ft 127kts
27-Apr-18 13:20 39.879367 -104.714997 180 6585ft 111kts
27-Apr-18 13:21 39.853433 -104.715925 176 6529ft 106kts
27-Apr-18 13:22 39.826634 -104.716212 175 6670ft 115kts
27-Apr-18 13:23 39.806687 -104.703183 91 6438ft 89kts
27-Apr-18 13:24 39.806710 -104.675115 82 5975ft 77kts
27-Apr-18 13:25 39.821153 -104.660731 4 5577ft 85kts
27-Apr-18 13:26 39.837431 -104.660465 1 5436ft 28kts
27-Apr-18 13:27 39.840517 -104.661666 238 5436ft 15kts
27-Apr-18 13:28 39.839311 -104.664160 238 5436ft 17kts
27-Apr-18 13:29 39.838998 -104.665383 269 5436ft 0kts
27-Apr-18 13:30 39.838998 -104.665383 269 5436ft 0kts
27-Apr-18 13:31 39.838998 -104.665383 269 5436ft 0kts
27-Apr-18 13:32 39.838998 -104.665383 269 5436ft 0kts
27-Apr-18 13:33 39.838998 -104.665383 269 5436ft 0kts
27-Apr-18 13:34 39.838998 -104.665383 269 5436ft 0kts
27-Apr-18 13:35 39.838998 -104.665383 269 5436ft 0kts

Navigation Log

Ident Type
Flight plan parsing failed, navigation log unavailable